createdAt,value
2022-08-17T00:00:42.830Z,55.50
2022-08-17T00:03:10.820Z,55.70
2022-08-17T00:05:37.924Z,55.70
2022-08-17T00:08:04.375Z,55.90
2022-08-17T00:10:32.271Z,55.90
2022-08-17T00:12:59.048Z,56.10
2022-08-17T00:15:25.523Z,56.10
2022-08-17T00:17:51.977Z,56.20
2022-08-17T00:20:18.536Z,56.30
2022-08-17T00:22:50.064Z,56.30
2022-08-17T00:25:16.817Z,57.00
2022-08-17T00:27:43.279Z,56.40
2022-08-17T00:30:09.748Z,56.40
2022-08-17T00:33:14.543Z,56.50
2022-08-17T00:35:22.661Z,56.50
2022-08-17T00:37:49.116Z,56.60
2022-08-17T00:40:15.697Z,56.80
2022-08-17T00:42:42.200Z,56.80
2022-08-17T00:45:08.678Z,56.80
2022-08-17T00:47:35.145Z,57.00
2022-08-17T00:50:01.635Z,57.10
2022-08-17T00:52:28.093Z,57.10
2022-08-17T00:54:54.571Z,57.10
2022-08-17T00:57:21.029Z,57.00
2022-08-17T00:59:51.116Z,57.00
2022-08-17T01:02:29.897Z,56.90
2022-08-17T01:05:00.920Z,57.00
2022-08-17T01:07:27.387Z,57.00
2022-08-17T01:09:53.848Z,57.00
2022-08-17T01:12:20.327Z,57.00
2022-08-17T01:14:46.790Z,57.00
2022-08-17T01:17:13.413Z,57.00
2022-08-17T01:19:39.873Z,57.10
2022-08-17T01:22:06.335Z,56.90
2022-08-17T01:24:33.765Z,57.00
2022-08-17T01:27:00.373Z,57.00
2022-08-17T01:29:26.901Z,57.00
2022-08-17T01:31:53.412Z,57.10
2022-08-17T01:34:19.875Z,57.00
2022-08-17T01:36:46.865Z,56.90
2022-08-17T01:39:13.332Z,57.00
2022-08-17T01:41:39.797Z,57.10
2022-08-17T01:44:06.255Z,56.90
2022-08-17T01:46:32.729Z,57.00
2022-08-17T01:48:59.190Z,57.00
2022-08-17T01:51:25.660Z,57.10
2022-08-17T01:53:52.126Z,57.00
2022-08-17T01:56:18.612Z,57.00
2022-08-17T01:58:45.090Z,56.90
2022-08-17T02:01:11.627Z,57.00
2022-08-17T02:03:38.137Z,56.90
2022-08-17T02:06:05.182Z,56.80
2022-08-17T02:08:37.341Z,56.90
2022-08-17T02:11:18.303Z,57.00
2022-08-17T02:13:46.272Z,56.80
2022-08-17T02:16:12.731Z,56.80
2022-08-17T02:18:39.205Z,56.80
2022-08-17T02:21:05.672Z,56.90
2022-08-17T02:23:32.148Z,56.80
2022-08-17T02:25:58.609Z,56.90
2022-08-17T02:28:25.080Z,57.60
2022-08-17T02:31:01.256Z,57.00
2022-08-17T02:33:42.690Z,57.00
2022-08-17T02:36:10.067Z,57.10
2022-08-17T02:38:36.550Z,57.10
2022-08-17T02:41:03.022Z,57.20
2022-08-17T02:43:29.501Z,58.00
2022-08-17T02:45:55.964Z,57.30
2022-08-17T02:48:30.690Z,57.30
2022-08-17T02:50:58.385Z,57.20
2022-08-17T02:53:25.760Z,57.20
2022-08-17T02:55:52.339Z,57.20
2022-08-17T02:58:34.278Z,57.30
2022-08-17T03:01:02.388Z,57.10
2022-08-17T03:03:28.870Z,57.20
2022-08-17T03:05:55.333Z,57.30
2022-08-17T03:08:21.818Z,57.30
2022-08-17T03:10:48.274Z,57.30
2022-08-17T03:13:14.752Z,57.30
2022-08-17T03:15:43.879Z,57.30
2022-08-17T03:18:14.377Z,57.40
2022-08-17T03:20:50.891Z,57.50
2022-08-17T03:23:17.372Z,57.40
2022-08-17T03:25:44.348Z,57.40
2022-08-17T03:28:12.223Z,57.50
2022-08-17T03:30:38.697Z,57.50
2022-08-17T03:33:05.170Z,57.60
2022-08-17T03:35:31.637Z,57.60
2022-08-17T03:38:00.537Z,57.50
2022-08-17T03:40:34.529Z,57.60
2022-08-17T03:43:13.921Z,57.60
2022-08-17T03:45:42.131Z,57.50
2022-08-17T03:48:09.714Z,57.50
2022-08-17T03:50:36.189Z,57.50
2022-08-17T03:53:02.663Z,57.50
2022-08-17T03:55:35.860Z,57.60
2022-08-17T03:58:02.914Z,57.60
2022-08-17T04:00:29.390Z,57.50
2022-08-17T04:02:55.851Z,57.40
2022-08-17T04:05:22.334Z,57.30
2022-08-17T04:07:48.849Z,57.30
2022-08-17T04:10:15.331Z,57.40
2022-08-17T04:12:41.798Z,57.40
2022-08-17T04:15:08.263Z,57.50
2022-08-17T04:17:34.723Z,57.50
2022-08-17T04:20:01.199Z,57.50
2022-08-17T04:22:30.441Z,57.60
2022-08-17T04:24:58.096Z,57.60
2022-08-17T04:27:25.258Z,57.60
2022-08-17T04:29:55.166Z,57.60
2022-08-17T04:32:58.621Z,57.70
2022-08-17T04:35:08.702Z,57.80
2022-08-17T04:37:35.164Z,58.00
2022-08-17T04:40:04.127Z,58.00
2022-08-17T04:42:30.880Z,58.10
2022-08-17T04:44:57.337Z,58.00
2022-08-17T04:47:23.811Z,58.10
2022-08-17T04:49:50.282Z,58.70
2022-08-17T04:52:32.232Z,58.00
2022-08-17T04:55:03.196Z,58.10
2022-08-17T04:57:29.668Z,58.10
2022-08-17T05:00:06.059Z,58.10
2022-08-17T05:02:32.544Z,58.20
2022-08-17T05:04:59.005Z,58.30
2022-08-17T05:07:31.296Z,58.30
2022-08-17T05:09:58.090Z,58.20
2022-08-17T05:12:24.565Z,58.30
2022-08-17T05:14:51.024Z,58.40
2022-08-17T05:17:17.495Z,58.50
2022-08-17T05:19:46.566Z,58.50
2022-08-17T05:22:15.264Z,58.50
2022-08-17T05:24:43.623Z,58.60
2022-08-17T05:27:20.137Z,58.60
2022-08-17T05:29:46.839Z,58.60
2022-08-17T05:32:38.357Z,58.50
2022-08-17T05:35:00.302Z,58.50
2022-08-17T05:37:26.956Z,58.40
2022-08-17T05:39:53.456Z,58.50
2022-08-17T05:42:20.017Z,58.50
2022-08-17T05:44:46.488Z,58.40
2022-08-17T05:47:12.965Z,58.40
2022-08-17T05:49:39.429Z,58.40
2022-08-17T05:52:05.917Z,58.50
2022-08-17T05:54:32.382Z,58.50
2022-08-17T05:56:58.873Z,58.60
2022-08-17T05:59:25.348Z,58.50
2022-08-17T06:01:51.810Z,58.30
2022-08-17T06:04:18.286Z,58.30
2022-08-17T06:06:44.749Z,59.00
2022-08-17T06:09:11.219Z,58.40
2022-08-17T06:11:37.685Z,58.40
2022-08-17T06:14:04.168Z,58.40
2022-08-17T06:16:34.390Z,58.50
2022-08-17T06:19:01.275Z,58.40
2022-08-17T06:21:32.073Z,58.30
2022-08-17T06:23:58.758Z,58.30
2022-08-17T06:26:25.813Z,58.30
2022-08-17T06:28:56.775Z,58.30
2022-08-17T06:31:23.235Z,58.20
2022-08-17T06:33:49.705Z,58.10
2022-08-17T06:36:16.271Z,58.10
2022-08-17T06:38:42.750Z,58.10
2022-08-17T06:41:09.224Z,58.10
2022-08-17T06:43:35.688Z,58.10
2022-08-17T06:46:02.163Z,58.20
2022-08-17T06:48:30.656Z,58.30
2022-08-17T06:50:57.138Z,58.30
2022-08-17T06:53:23.609Z,58.30
2022-08-17T06:55:50.196Z,58.20
2022-08-17T06:58:17.035Z,58.20
2022-08-17T07:00:43.657Z,58.30
2022-08-17T07:03:10.375Z,58.30
2022-08-17T07:05:37.067Z,58.40
2022-08-17T07:08:05.211Z,58.70
2022-08-17T07:10:31.669Z,58.70
2022-08-17T07:12:58.144Z,58.80
2022-08-17T07:15:24.601Z,59.00
2022-08-17T07:17:51.069Z,59.10
2022-08-17T07:20:17.538Z,59.30
2022-08-17T07:22:57.488Z,59.40
2022-08-17T07:25:27.032Z,59.70
2022-08-17T07:27:53.519Z,60.10
2022-08-17T07:30:19.994Z,60.20
2022-08-17T07:32:46.500Z,60.30
2022-08-17T07:35:12.961Z,60.50
2022-08-17T07:37:41.987Z,60.70
2022-08-17T07:40:15.832Z,60.70
2022-08-17T07:42:46.548Z,60.70
2022-08-17T07:45:13.300Z,60.50
2022-08-17T07:47:39.767Z,60.30
2022-08-17T07:50:06.238Z,60.20
2022-08-17T07:52:50.552Z,60.30
2022-08-17T07:55:18.507Z,60.70
2022-08-17T07:57:44.984Z,61.00
2022-08-17T08:00:13.476Z,61.00
2022-08-17T08:02:42.903Z,61.10
2022-08-17T08:05:10.137Z,61.20
2022-08-17T08:07:36.657Z,61.20
2022-08-17T08:10:03.120Z,61.20
2022-08-17T08:12:33.420Z,61.00
2022-08-17T08:15:00.325Z,60.60
2022-08-17T08:17:26.787Z,60.20
2022-08-17T08:19:53.264Z,59.80
2022-08-17T08:22:19.726Z,59.60
2022-08-17T08:24:46.199Z,59.40
2022-08-17T08:27:12.663Z,59.30
2022-08-17T08:29:39.147Z,59.20
2022-08-17T08:32:05.608Z,59.20
2022-08-17T08:34:58.654Z,59.30
2022-08-17T08:37:25.127Z,59.10
2022-08-17T08:39:56.987Z,59.00
2022-08-17T08:42:23.521Z,58.80
2022-08-17T08:45:00.784Z,58.60
2022-08-17T08:47:31.396Z,58.60
2022-08-17T08:50:04.305Z,58.30
2022-08-17T08:52:31.757Z,58.20
2022-08-17T08:54:58.220Z,58.00
2022-08-17T08:57:30.791Z,58.00
2022-08-17T09:00:00.099Z,57.90
2022-08-17T09:02:26.569Z,57.80
2022-08-17T09:05:13.345Z,57.70
2022-08-17T09:07:39.498Z,57.20
2022-08-17T09:10:05.958Z,57.30
2022-08-17T09:12:32.430Z,57.30
2022-08-17T09:14:58.899Z,57.00
2022-08-17T09:17:25.367Z,56.90
2022-08-17T09:19:51.839Z,56.60
2022-08-17T09:22:18.303Z,56.30
2022-08-17T09:24:44.781Z,56.10
2022-08-17T09:27:11.237Z,55.80
2022-08-17T09:29:37.717Z,55.50
2022-08-17T09:32:04.177Z,55.40
2022-08-17T09:34:33.097Z,55.40
2022-08-17T09:36:59.781Z,55.30
2022-08-17T09:39:26.316Z,55.20
2022-08-17T09:41:52.803Z,55.00
2022-08-17T09:44:22.761Z,54.60
2022-08-17T09:46:50.286Z,54.20
2022-08-17T09:49:16.765Z,53.90
2022-08-17T09:51:43.230Z,53.50
2022-08-17T09:54:37.674Z,53.40
2022-08-17T09:57:11.890Z,53.20
2022-08-17T09:59:42.605Z,52.90
2022-08-17T10:02:09.068Z,52.60
2022-08-17T10:04:39.953Z,52.70
2022-08-17T10:07:06.436Z,52.80
2022-08-17T10:09:32.909Z,52.60
2022-08-17T10:11:59.409Z,52.30
2022-08-17T10:14:37.213Z,52.40
2022-08-17T10:17:09.962Z,52.10
2022-08-17T10:19:36.425Z,52.20
2022-08-17T10:22:14.971Z,52.30
2022-08-17T10:25:21.209Z,52.40
2022-08-17T10:27:35.797Z,52.50
2022-08-17T10:30:02.264Z,52.60
2022-08-17T10:32:28.745Z,52.60
2022-08-17T10:34:55.206Z,52.70
2022-08-17T10:37:21.682Z,52.70
2022-08-17T10:39:52.106Z,52.70
2022-08-17T10:42:32.695Z,52.60
2022-08-17T10:44:59.597Z,52.70
2022-08-17T10:47:26.057Z,52.90
2022-08-17T10:49:52.530Z,52.90
2022-08-17T10:52:18.997Z,52.90
2022-08-17T10:54:45.470Z,52.70
2022-08-17T10:57:11.932Z,52.70
2022-08-17T10:59:38.403Z,52.70
2022-08-17T11:02:04.874Z,52.80
2022-08-17T11:04:31.400Z,52.70
2022-08-17T11:06:57.868Z,52.70
2022-08-17T11:09:24.330Z,52.60
2022-08-17T11:11:50.791Z,52.50
2022-08-17T11:14:17.251Z,52.50
2022-08-17T11:16:43.725Z,52.60
2022-08-17T11:19:10.188Z,52.60
2022-08-17T11:21:36.666Z,52.50
2022-08-17T11:24:03.128Z,52.50
2022-08-17T11:26:29.607Z,52.40
2022-08-17T11:28:56.074Z,52.40
2022-08-17T11:31:22.539Z,52.30
2022-08-17T11:34:05.870Z,52.30
2022-08-17T11:36:32.335Z,52.40
2022-08-17T11:38:58.813Z,52.10
2022-08-17T11:41:25.273Z,52.10
2022-08-17T11:43:51.736Z,52.00
2022-08-17T11:46:18.205Z,52.20
2022-08-17T11:48:44.682Z,52.10
2022-08-17T11:51:11.137Z,52.10
2022-08-17T11:53:37.603Z,52.00
2022-08-17T11:56:04.101Z,51.80
2022-08-17T11:58:30.577Z,51.70
2022-08-17T12:00:57.044Z,51.70
2022-08-17T12:03:23.577Z,51.70
2022-08-17T12:05:50.136Z,51.70
2022-08-17T12:08:16.599Z,51.70
2022-08-17T12:10:43.073Z,51.70
2022-08-17T12:13:09.560Z,51.60
2022-08-17T12:15:36.044Z,51.60
2022-08-17T12:18:02.503Z,51.60
2022-08-17T12:20:28.974Z,51.70
2022-08-17T12:22:55.446Z,51.60
2022-08-17T12:28:05.448Z,51.70
2022-08-17T12:30:33.432Z,51.70
2022-08-17T12:32:59.896Z,51.80
2022-08-17T12:35:26.364Z,51.90
2022-08-17T12:37:52.863Z,51.90
2022-08-17T12:40:19.338Z,52.00
2022-08-17T12:45:27.574Z,52.20
2022-08-17T12:47:54.050Z,52.20
2022-08-17T12:50:29.897Z,52.40
2022-08-17T12:53:01.682Z,52.60
2022-08-17T12:55:32.647Z,52.70
2022-08-17T12:58:00.856Z,52.90
2022-08-17T13:00:28.517Z,53.00
2022-08-17T13:02:54.985Z,53.30
2022-08-17T13:05:21.456Z,53.70
2022-08-17T13:07:47.936Z,54.20
2022-08-17T13:10:14.400Z,54.80
2022-08-17T13:12:40.885Z,55.40
2022-08-17T13:15:07.366Z,56.00
2022-08-17T13:17:33.837Z,56.20
2022-08-17T13:20:00.297Z,56.90
2022-08-17T13:22:26.766Z,57.60
2022-08-17T13:24:53.352Z,58.00
2022-08-17T13:27:19.897Z,58.30
2022-08-17T13:29:51.475Z,59.00
2022-08-17T13:32:19.902Z,59.40
2022-08-17T13:35:12.051Z,59.50
2022-08-17T13:37:32.946Z,59.90
2022-08-17T13:39:59.508Z,60.00
2022-08-17T13:42:25.997Z,60.30
2022-08-17T13:44:52.463Z,61.30
2022-08-17T13:47:18.927Z,61.80
2022-08-17T13:49:48.880Z,62.50
2022-08-17T13:52:15.609Z,63.20
2022-08-17T13:54:47.071Z,63.40
2022-08-17T13:57:13.533Z,63.20
2022-08-17T13:59:53.225Z,63.30
2022-08-17T14:02:21.844Z,63.10
2022-08-17T14:04:48.329Z,63.00
2022-08-17T14:07:14.792Z,63.60
2022-08-17T14:09:41.265Z,62.90
2022-08-17T14:12:07.737Z,62.90
2022-08-17T14:14:34.206Z,63.40
2022-08-17T14:17:00.670Z,63.60
2022-08-17T14:19:27.142Z,64.10
2022-08-17T14:21:53.611Z,64.40
2022-08-17T14:24:20.079Z,64.60
2022-08-17T14:26:46.545Z,64.80
2022-08-17T14:29:15.413Z,64.90
2022-08-17T14:31:42.168Z,65.00
2022-08-17T14:34:12.505Z,65.10
2022-08-17T14:36:38.999Z,65.30
2022-08-17T14:39:14.963Z,65.30
2022-08-17T14:41:41.431Z,65.60
2022-08-17T14:44:07.903Z,66.30
2022-08-17T14:46:34.378Z,66.50
2022-08-17T14:49:00.863Z,66.60
2022-08-17T14:51:27.336Z,66.60
2022-08-17T14:53:53.801Z,66.70
2022-08-17T14:56:20.274Z,67.00
2022-08-17T14:58:46.733Z,67.20
2022-08-17T15:01:13.271Z,67.60
2022-08-17T15:03:39.773Z,67.60
2022-08-17T15:06:07.005Z,67.50
2022-08-17T15:08:33.472Z,67.50
2022-08-17T15:10:59.939Z,67.70
2022-08-17T15:13:26.398Z,67.90
2022-08-17T15:15:52.874Z,67.90
2022-08-17T15:18:19.336Z,67.70
2022-08-17T15:20:45.825Z,67.60
2022-08-17T15:23:12.298Z,67.50
2022-08-17T15:25:38.778Z,67.40
2022-08-17T15:28:05.238Z,67.60
2022-08-17T15:30:31.731Z,67.70
2022-08-17T15:32:58.204Z,67.90
2022-08-17T15:35:28.159Z,68.00
2022-08-17T15:37:55.162Z,67.90
2022-08-17T15:40:21.620Z,67.80
2022-08-17T15:42:48.097Z,67.70
2022-08-17T15:45:14.574Z,67.80
2022-08-17T15:47:41.049Z,67.80
2022-08-17T15:50:07.519Z,67.70
2022-08-17T15:52:33.992Z,67.70
2022-08-17T15:55:00.454Z,67.70
2022-08-17T15:57:26.926Z,67.60
2022-08-17T15:59:54.546Z,67.80
2022-08-17T16:03:29.440Z,67.70
2022-08-17T16:05:10.063Z,67.80
2022-08-17T16:07:36.829Z,67.70
2022-08-17T16:10:03.300Z,67.90
2022-08-17T16:15:05.084Z,68.10
2022-08-17T16:17:39.643Z,68.10
2022-08-17T16:20:07.109Z,68.40
2022-08-17T16:22:33.583Z,68.60
2022-08-17T16:25:00.077Z,68.70
2022-08-17T16:27:26.537Z,68.70
2022-08-17T16:29:55.518Z,68.60
2022-08-17T16:32:22.102Z,68.60
2022-08-17T16:34:58.511Z,68.40
2022-08-17T16:37:24.982Z,68.30
2022-08-17T16:39:51.842Z,68.40
2022-08-17T16:42:18.344Z,68.40
2022-08-17T16:44:44.827Z,68.40
2022-08-17T16:47:11.290Z,68.40
2022-08-17T16:49:38.233Z,68.30
2022-08-17T16:52:04.767Z,68.30
2022-08-17T16:54:31.254Z,68.30
2022-08-17T16:56:57.725Z,68.30
2022-08-17T16:59:30.903Z,68.30
2022-08-17T17:01:58.231Z,68.60
2022-08-17T17:04:24.697Z,68.30
2022-08-17T17:06:51.159Z,68.30
2022-08-17T17:09:17.628Z,68.30
2022-08-17T17:11:44.092Z,68.30
2022-08-17T17:14:10.564Z,68.20
2022-08-17T17:16:37.024Z,68.20
2022-08-17T17:19:05.649Z,68.10
2022-08-17T17:21:32.105Z,68.10
2022-08-17T17:23:58.567Z,68.10
2022-08-17T17:26:25.049Z,68.10
2022-08-17T17:28:51.524Z,68.10
2022-08-17T17:31:18.005Z,68.20
2022-08-17T17:33:44.470Z,68.20
2022-08-17T17:36:10.941Z,68.30
2022-08-17T17:38:37.417Z,68.40
2022-08-17T17:41:03.896Z,68.50
2022-08-17T17:43:45.615Z,68.50
2022-08-17T17:46:27.322Z,68.40
2022-08-17T17:48:55.402Z,68.40
2022-08-17T17:52:09.555Z,68.70
2022-08-17T17:54:08.350Z,68.80
2022-08-17T17:56:43.845Z,68.70
2022-08-17T17:59:12.738Z,68.80
2022-08-17T18:01:39.609Z,68.70
2022-08-17T18:04:15.658Z,68.60
2022-08-17T18:06:47.262Z,68.60
2022-08-17T18:09:19.238Z,68.60
2022-08-17T18:11:46.075Z,68.50
2022-08-17T18:14:17.896Z,68.60
2022-08-17T18:16:44.352Z,68.80
2022-08-17T18:19:10.823Z,68.90
2022-08-17T18:21:37.284Z,68.80
2022-08-17T18:24:03.757Z,68.90
2022-08-17T18:26:30.213Z,68.80
2022-08-17T18:28:58.610Z,68.90
2022-08-17T18:31:25.071Z,68.90
2022-08-17T18:33:51.556Z,68.90
2022-08-17T18:36:18.036Z,68.90
2022-08-17T18:38:44.533Z,68.80
2022-08-17T18:41:11.008Z,68.70
2022-08-17T18:43:52.747Z,68.80
2022-08-17T18:46:28.336Z,68.90
2022-08-17T18:48:55.553Z,69.30
2022-08-17T18:51:26.745Z,69.50
2022-08-17T18:54:08.076Z,69.40
2022-08-17T18:56:34.650Z,69.20
2022-08-17T18:59:01.186Z,69.30
2022-08-17T19:01:52.108Z,69.20
2022-08-17T19:04:14.205Z,69.40
2022-08-17T19:06:40.686Z,69.20
2022-08-17T19:09:07.151Z,69.20
2022-08-17T19:11:33.700Z,69.30
2022-08-17T19:14:00.164Z,69.30
2022-08-17T19:16:26.668Z,69.50
2022-08-17T19:18:53.231Z,69.60
2022-08-17T19:21:19.715Z,69.90
2022-08-17T19:23:54.156Z,70.00
2022-08-17T19:26:54.771Z,69.90
2022-08-17T19:29:07.478Z,69.80
2022-08-17T19:31:36.373Z,69.70
2022-08-17T19:34:02.843Z,69.70
2022-08-17T19:36:29.383Z,70.00
2022-08-17T19:38:56.051Z,70.20
2022-08-17T19:41:22.605Z,70.30
2022-08-17T19:43:49.436Z,70.10
2022-08-17T19:46:16.009Z,70.10
2022-08-17T19:48:42.490Z,70.10
2022-08-17T19:51:08.946Z,70.20
2022-08-17T19:54:01.510Z,70.20
2022-08-17T19:56:21.875Z,70.20
2022-08-17T19:58:48.347Z,70.10
2022-08-17T20:01:17.996Z,70.20
2022-08-17T20:03:44.520Z,70.20
2022-08-17T20:06:13.861Z,70.20
2022-08-17T20:08:40.779Z,70.30
2022-08-17T20:11:07.246Z,70.30
2022-08-17T20:13:34.017Z,70.30
2022-08-17T20:16:00.598Z,70.30
2022-08-17T20:18:27.063Z,70.30
2022-08-17T20:20:54.823Z,70.30
2022-08-17T20:23:22.240Z,70.30
2022-08-17T20:25:48.701Z,70.30
2022-08-17T20:28:15.203Z,70.40
2022-08-17T20:30:41.677Z,70.40
2022-08-17T20:33:08.152Z,70.40
2022-08-17T20:35:39.788Z,70.30
2022-08-17T20:38:06.272Z,70.40
2022-08-17T20:40:32.747Z,70.50
2022-08-17T20:42:59.242Z,70.50
2022-08-17T20:45:25.704Z,70.30
2022-08-17T20:48:18.694Z,70.40
2022-08-17T20:50:38.641Z,70.40
2022-08-17T20:53:05.118Z,70.60
2022-08-17T20:55:31.583Z,70.60
2022-08-17T20:57:59.050Z,70.60
2022-08-17T21:00:25.504Z,70.60
2022-08-17T21:02:51.975Z,70.50
2022-08-17T21:05:18.461Z,70.40
2022-08-17T21:07:44.916Z,70.50
2022-08-17T21:10:11.401Z,70.50
2022-08-17T21:12:37.856Z,70.60
2022-08-17T21:15:04.330Z,70.70
2022-08-17T21:17:30.789Z,70.70
2022-08-17T21:20:12.865Z,70.70
2022-08-17T21:22:39.409Z,70.80
2022-08-17T21:25:05.889Z,70.70
2022-08-17T21:27:32.354Z,70.60
2022-08-17T21:29:58.828Z,70.60
2022-08-17T21:32:25.430Z,70.60
2022-08-17T21:34:51.906Z,70.60
2022-08-17T21:37:18.367Z,70.70
2022-08-17T21:39:44.845Z,70.70
2022-08-17T21:42:11.329Z,70.70
2022-08-17T21:44:37.788Z,70.70
2022-08-17T21:47:04.264Z,70.90
2022-08-17T21:49:30.725Z,71.00
2022-08-17T21:52:04.393Z,71.10
2022-08-17T21:54:30.870Z,71.20
2022-08-17T21:56:57.346Z,71.10
2022-08-17T21:59:23.810Z,71.00
2022-08-17T22:01:50.551Z,70.90
2022-08-17T22:04:17.197Z,70.80
2022-08-17T22:06:52.170Z,70.80
2022-08-17T22:09:23.955Z,70.80
2022-08-17T22:11:50.447Z,70.70
2022-08-17T22:14:16.911Z,70.90
2022-08-17T22:16:43.995Z,71.10
2022-08-17T22:19:10.498Z,71.20
2022-08-17T22:21:36.965Z,71.30
2022-08-17T22:24:03.432Z,71.40
2022-08-17T22:26:29.920Z,71.60
2022-08-17T22:28:56.396Z,71.70
2022-08-17T22:31:22.856Z,71.70
2022-08-17T22:33:49.476Z,71.80
2022-08-17T22:36:15.988Z,71.80
2022-08-17T22:38:43.593Z,71.70
2022-08-17T22:41:10.215Z,71.80
2022-08-17T22:43:36.692Z,71.90
2022-08-17T22:46:03.174Z,71.80
2022-08-17T22:48:29.641Z,72.00
2022-08-17T22:50:56.136Z,72.10
2022-08-17T22:53:22.597Z,72.40
2022-08-17T22:55:49.075Z,72.60
2022-08-17T22:58:15.543Z,72.70
2022-08-17T23:00:42.061Z,72.80
2022-08-17T23:03:08.607Z,72.70
2022-08-17T23:05:35.100Z,73.10
2022-08-17T23:08:01.567Z,73.30
2022-08-17T23:10:28.034Z,74.00
2022-08-17T23:12:54.511Z,73.40
2022-08-17T23:15:20.979Z,73.50
2022-08-17T23:17:47.515Z,73.60
2022-08-17T23:20:14.064Z,73.60
2022-08-17T23:22:51.548Z,73.90
2022-08-17T23:25:19.091Z,73.80
2022-08-17T23:27:47.081Z,74.00
2022-08-17T23:30:13.582Z,74.00
2022-08-17T23:32:44.375Z,74.10
2022-08-17T23:35:19.995Z,74.10
2022-08-17T23:38:05.881Z,74.20
2022-08-17T23:40:32.340Z,74.20
2022-08-17T23:42:58.793Z,74.10
2022-08-17T23:45:25.248Z,74.00
2022-08-17T23:47:51.831Z,73.90
2022-08-17T23:50:18.372Z,73.80
2022-08-17T23:52:45.044Z,73.80
2022-08-17T23:55:11.507Z,73.70
2022-08-17T23:57:37.988Z,73.60
